Main page
METAR-TAF:

METAR-TAF

Airports :

Niederstetten Air Base

Niederstetten, Germany

latitude: 49-24N, longitude: 009-58E, elevation: 468 m

Current weather observation

The report was made 1 hour and 15 minutes ago, at 06:20 UTC
Wind 11 kt from the East
Temperature 11°C
Humidity 54%
Pressure 1027 hPa
Visibility 10 km or more

METAR: ETHN 190620Z 10011KT 9999 11/02 Q1027 BLU+

Time: 09:35 (07:35 UTC)

Forecast

The report was made 17 hours and 52 minutes ago, at 13:43 UTC
Forecast valid from 18 at 14 UTC to 18 at 23 UTC
Wind 10 kt from the East with gusts up to 20 kt
Visibility: 1400 m
Scattered clouds at a height of 25000 ft

TAF: ETHN 181343Z 1814/1823 09010G20KT 9999 NSW SCT250 CANCEL 1400

Weather observations and forecasts of more than 4000 airports (METAR and TAF reports).

The available stations are represented by yellow and red dots on the map.

Hover mouse over dot to see the name of the station.

Then click to see weather observations and forecasts.

To change the map : click on the green buttons with a black cross to zoom in, on the green button with a dash to zoom out, or on the green arrows for adjacent maps.


METAR-TAF: